createdAt,value
2022-09-20T00:01:26.203Z,102438.50
2022-09-20T00:03:57.804Z,102432.44
2022-09-20T00:06:29.822Z,102430.72
2022-09-20T00:08:57.132Z,102442.06
2022-09-20T00:11:26.478Z,102435.97
2022-09-20T00:13:56.135Z,102436.88
2022-09-20T00:16:35.570Z,102432.56
2022-09-20T00:19:04.044Z,102424.78
2022-09-20T00:21:32.750Z,102436.97
2022-09-20T00:23:59.488Z,102430.00
2022-09-20T00:26:27.401Z,102419.66
2022-09-20T00:28:54.220Z,102446.66
2022-09-20T00:31:20.724Z,102438.00
2022-09-20T00:34:05.886Z,102451.91
2022-09-20T00:36:32.606Z,102446.72
2022-09-20T00:39:00.926Z,102433.69
2022-09-20T00:41:28.837Z,102451.13
2022-09-20T00:43:56.117Z,102438.09
2022-09-20T00:46:33.683Z,102454.63
2022-09-20T00:49:13.472Z,102438.94
2022-09-20T00:51:43.111Z,102436.38
2022-09-20T00:54:14.792Z,102438.09
2022-09-20T00:56:44.109Z,102448.56
2022-09-20T00:59:19.728Z,102451.22
2022-09-20T01:01:57.721Z,102445.13
2022-09-20T01:04:27.469Z,102441.69
2022-09-20T01:06:57.757Z,102453.03
2022-09-20T01:09:24.275Z,102443.50
2022-09-20T01:11:55.311Z,102456.59
2022-09-20T01:14:23.710Z,102448.75
2022-09-20T01:16:53.807Z,102454.88
2022-09-20T01:19:35.383Z,102461.00
2022-09-20T01:22:08.548Z,102459.25
2022-09-20T01:24:42.943Z,102439.31
2022-09-20T01:27:36.444Z,102441.91
2022-09-20T01:30:08.078Z,102469.78
2022-09-20T01:32:42.474Z,102462.81
2022-09-20T01:35:11.542Z,102469.81
2022-09-20T01:37:54.469Z,102468.06
2022-09-20T01:40:30.070Z,102450.69
2022-09-20T01:43:28.103Z,102470.72
2022-09-20T01:45:54.894Z,102466.34
2022-09-20T01:48:59.972Z,102471.59
2022-09-20T01:51:52.444Z,102462.00
2022-09-20T01:54:48.078Z,102469.88
2022-09-20T01:57:32.879Z,102463.75
2022-09-20T02:00:12.068Z,102465.50
2022-09-20T02:02:50.530Z,102461.13
2022-09-20T02:05:38.195Z,102462.88
2022-09-20T02:08:29.559Z,102467.25
2022-09-20T02:10:59.155Z,102459.44
2022-09-20T02:13:40.670Z,102466.38
2022-09-20T02:16:40.260Z,102466.34
2022-09-20T02:19:25.589Z,102462.88
2022-09-20T02:22:07.263Z,102468.09
2022-09-20T02:24:50.783Z,102462.00
2022-09-20T02:27:45.408Z,102455.03
2022-09-20T02:30:33.992Z,102456.78
2022-09-20T02:33:12.261Z,102461.97
2022-09-20T02:35:56.937Z,102456.75
2022-09-20T02:38:54.095Z,102449.81
2022-09-20T02:41:41.999Z,102450.66
2022-09-20T02:44:20.488Z,102460.22
2022-09-20T02:47:11.784Z,102455.88
2022-09-20T02:50:10.731Z,102455.88
2022-09-20T02:52:57.257Z,102457.59
2022-09-20T02:55:55.339Z,102456.72
2022-09-20T02:58:35.260Z,102455.84
2022-09-20T03:01:20.111Z,102468.88
2022-09-20T03:04:02.175Z,102435.75
2022-09-20T03:06:49.499Z,102452.28
2022-09-20T03:09:34.160Z,102459.28
2022-09-20T03:12:32.376Z,102451.44
2022-09-20T03:15:25.294Z,102444.47
2022-09-20T03:17:58.108Z,102421.81
2022-09-20T03:20:33.770Z,102449.63
2022-09-20T03:23:33.002Z,102447.03
2022-09-20T03:26:36.984Z,102453.97
2022-09-20T03:29:18.750Z,102452.22
2022-09-20T03:32:13.818Z,102447.88
2022-09-20T03:35:06.381Z,102436.53
2022-09-20T03:37:44.941Z,102455.66
2022-09-20T03:40:26.482Z,102444.34
2022-09-20T03:42:54.492Z,102460.84
2022-09-20T03:45:35.643Z,102459.13
2022-09-20T03:48:29.928Z,102450.38
2022-09-20T03:51:33.821Z,102459.94
2022-09-20T03:54:09.780Z,102464.25
2022-09-20T03:56:45.252Z,102459.03
2022-09-20T03:59:14.769Z,102465.97
2022-09-20T04:01:56.555Z,102470.28
2022-09-20T04:04:41.776Z,102472.00
2022-09-20T04:07:27.127Z,102466.75
2022-09-20T04:10:04.651Z,102465.88
2022-09-20T04:12:55.981Z,102460.66
2022-09-20T04:15:47.703Z,102457.94
2022-09-20T04:18:43.540Z,102466.63
2022-09-20T04:21:53.391Z,102469.22
2022-09-20T04:24:28.797Z,102460.50
2022-09-20T04:27:22.932Z,102463.91
2022-09-20T04:29:57.471Z,102468.25
2022-09-20T04:32:44.389Z,102463.88
2022-09-20T04:35:54.469Z,102465.59
2022-09-20T04:38:21.909Z,102467.28
2022-09-20T04:41:00.564Z,102461.16
2022-09-20T04:44:06.174Z,102460.25
2022-09-20T04:46:56.171Z,102455.03
2022-09-20T04:50:11.405Z,102458.44
2022-09-20T04:53:05.921Z,102462.72
2022-09-20T04:55:41.526Z,102463.56
2022-09-20T04:58:47.064Z,102461.78
2022-09-20T05:01:19.856Z,102466.09
2022-09-20T05:04:08.032Z,102477.31
2022-09-20T05:06:37.403Z,102470.38
2022-09-20T05:09:36.633Z,102477.25
2022-09-20T05:12:24.942Z,102467.66
2022-09-20T05:15:41.171Z,102465.84
2022-09-20T05:18:25.623Z,102473.66
2022-09-20T05:21:01.700Z,102477.97
2022-09-20T05:23:45.280Z,102470.06
2022-09-20T05:26:37.371Z,102479.59
2022-09-20T05:29:21.991Z,102472.63
2022-09-20T05:32:05.029Z,102469.06
2022-09-20T05:34:56.353Z,102445.47
2022-09-20T05:37:31.824Z,102477.72
2022-09-20T05:40:06.202Z,102482.88
2022-09-20T05:42:50.923Z,102483.75
2022-09-20T05:45:42.372Z,102475.00
2022-09-20T05:48:12.866Z,102474.97
2022-09-20T05:50:50.325Z,102485.34
2022-09-20T05:54:00.610Z,102480.09
2022-09-20T05:56:32.990Z,102483.56
2022-09-20T05:59:27.602Z,102481.81
2022-09-20T06:02:15.834Z,102475.75
2022-09-20T06:05:17.981Z,102480.06
2022-09-20T06:08:21.193Z,102464.34
2022-09-20T06:11:03.089Z,102488.72
2022-09-20T06:13:49.838Z,102488.72
2022-09-20T06:16:32.516Z,102484.41
2022-09-20T06:19:09.670Z,102496.53
2022-09-20T06:21:55.728Z,102504.34
2022-09-20T06:24:43.071Z,102497.44
2022-09-20T06:27:24.325Z,102469.47
2022-09-20T06:29:57.777Z,102500.97
2022-09-20T06:32:24.313Z,102510.50
2022-09-20T06:34:51.425Z,102497.44
2022-09-20T06:37:49.223Z,102520.19
2022-09-20T06:40:49.648Z,102528.88
2022-09-20T06:43:16.098Z,102526.34
2022-09-20T06:45:42.915Z,102509.00
2022-09-20T06:48:11.630Z,102522.13
2022-09-20T06:50:38.824Z,102532.59
2022-09-20T06:53:06.538Z,102524.00
2022-09-20T06:55:41.319Z,102515.31
2022-09-20T06:58:09.826Z,102518.88
2022-09-20T07:00:36.904Z,102535.50
2022-09-20T07:03:03.354Z,102534.69
2022-09-20T07:05:29.863Z,102539.13
2022-09-20T07:07:58.400Z,102537.41
2022-09-20T07:10:28.120Z,102540.16
2022-09-20T07:13:00.309Z,102541.94
2022-09-20T07:15:28.227Z,102543.75
2022-09-20T07:17:55.319Z,102547.28
2022-09-20T07:20:22.219Z,102529.06
2022-09-20T07:22:49.528Z,102543.91
2022-09-20T07:25:18.108Z,102542.28
2022-09-20T07:27:46.418Z,102530.16
2022-09-20T07:30:14.903Z,102552.03
2022-09-20T07:32:41.453Z,102551.25
2022-09-20T07:35:09.678Z,102548.72
2022-09-20T07:37:37.332Z,102528.72
2022-09-20T07:40:05.392Z,102541.88
2022-09-20T07:42:32.073Z,102562.84
2022-09-20T07:44:59.457Z,102557.66
2022-09-20T07:47:26.548Z,102549.88
2022-09-20T07:49:53.324Z,102560.34
2022-09-20T07:52:20.059Z,102555.19
2022-09-20T07:54:47.177Z,102562.13
2022-09-20T07:57:13.815Z,102567.38
2022-09-20T07:59:40.257Z,102557.78
2022-09-20T08:02:06.756Z,102520.34
2022-09-20T08:04:33.227Z,102566.47
2022-09-20T08:07:01.519Z,102557.72
2022-09-20T08:09:28.002Z,102569.00
2022-09-20T08:11:56.439Z,102558.50
2022-09-20T08:14:24.203Z,102561.03
2022-09-20T08:16:51.795Z,102577.59
2022-09-20T08:19:21.635Z,102550.59
2022-09-20T08:21:49.777Z,102575.75
2022-09-20T08:24:17.219Z,102571.34
2022-09-20T08:26:44.417Z,102579.13
2022-09-20T08:29:11.825Z,102560.81
2022-09-20T08:31:42.165Z,102584.25
2022-09-20T08:34:12.236Z,102563.31
2022-09-20T08:36:41.484Z,102580.63
2022-09-20T08:42:14.337Z,102592.66
2022-09-20T08:44:58.351Z,102583.91
2022-09-20T08:47:28.281Z,102600.41
2022-09-20T08:49:57.300Z,102587.19
2022-09-20T08:52:37.547Z,102586.22
2022-09-20T08:55:23.023Z,102593.06
2022-09-20T08:57:55.298Z,102579.88
2022-09-20T09:00:26.032Z,102590.19
2022-09-20T09:02:56.363Z,102585.59
2022-09-20T09:05:33.901Z,102588.94
2022-09-20T09:08:06.179Z,102583.50
2022-09-20T09:10:45.908Z,102584.09
2022-09-20T09:13:24.182Z,102592.63
2022-09-20T09:16:07.316Z,102588.75
2022-09-20T09:18:37.778Z,102592.00
2022-09-20T09:21:07.677Z,102588.31
2022-09-20T09:24:05.917Z,102581.22
2022-09-20T09:26:41.400Z,102586.06
2022-09-20T09:29:18.440Z,102590.25
2022-09-20T09:31:47.057Z,102596.75
2022-09-20T09:34:23.033Z,102590.28
2022-09-20T09:36:49.499Z,102580.28
2022-09-20T09:39:28.425Z,102578.34
2022-09-20T09:41:55.365Z,102586.91
2022-09-20T09:44:23.439Z,102585.00
2022-09-20T09:46:51.177Z,102584.91
2022-09-20T09:49:19.069Z,102590.84
2022-09-20T09:52:06.854Z,102586.06
2022-09-20T09:54:39.428Z,102577.91
2022-09-20T09:57:33.039Z,102587.03
2022-09-20T10:00:19.112Z,102579.06
2022-09-20T10:03:01.151Z,102559.81
2022-09-20T10:05:48.254Z,102582.25
2022-09-20T10:08:29.252Z,102560.28
2022-09-20T10:11:00.819Z,102583.50
2022-09-20T10:13:40.916Z,102584.38
2022-09-20T10:16:29.258Z,102578.16
2022-09-20T10:19:04.084Z,102532.97
2022-09-20T10:21:56.907Z,102573.66
2022-09-20T10:24:42.358Z,102571.06
2022-09-20T10:27:27.425Z,102577.94
2022-09-20T10:30:17.042Z,102572.38
2022-09-20T10:32:52.380Z,102580.97
2022-09-20T10:35:25.000Z,102582.56
2022-09-20T10:38:00.180Z,102572.84
2022-09-20T10:40:52.818Z,102581.75
2022-09-20T10:43:41.898Z,102587.25
2022-09-20T10:46:35.225Z,102581.94
2022-09-20T10:49:25.009Z,102580.09
2022-09-20T10:52:16.463Z,102556.38
2022-09-20T10:55:20.407Z,102577.06
2022-09-20T10:57:56.132Z,102575.97
2022-09-20T11:00:36.797Z,102564.53
2022-09-20T11:03:22.719Z,102574.88
2022-09-20T11:06:01.437Z,102571.81
2022-09-20T11:08:33.749Z,102554.88
2022-09-20T11:11:12.426Z,102571.44
2022-09-20T11:14:01.590Z,102567.97
2022-09-20T11:16:33.180Z,102556.00
2022-09-20T11:19:13.897Z,102561.31
2022-09-20T11:21:46.941Z,102518.09
2022-09-20T11:24:35.123Z,102564.91
2022-09-20T11:27:33.501Z,102565.50
2022-09-20T11:30:08.522Z,102565.19
2022-09-20T11:32:37.454Z,102567.72
2022-09-20T11:35:25.093Z,102557.22
2022-09-20T11:38:22.320Z,102557.97
2022-09-20T11:41:02.521Z,102553.72
2022-09-20T11:43:31.116Z,102525.47
2022-09-20T11:46:08.810Z,102546.66
2022-09-20T11:48:51.695Z,102559.72
2022-09-20T11:51:39.945Z,102535.31
2022-09-20T11:54:37.522Z,102550.53
2022-09-20T11:57:05.966Z,102536.78
2022-09-20T11:59:37.419Z,102552.47
2022-09-20T12:02:17.198Z,102553.97
2022-09-20T12:04:49.503Z,102562.88
2022-09-20T12:07:29.763Z,102557.03
2022-09-20T12:10:02.841Z,102548.06
2022-09-20T12:12:41.939Z,102557.03
2022-09-20T12:15:29.456Z,102527.75
2022-09-20T12:17:58.868Z,102555.84
2022-09-20T12:20:34.758Z,102554.03
2022-09-20T12:23:38.498Z,102548.06
2022-09-20T12:26:21.564Z,102551.19
2022-09-20T12:28:52.472Z,102538.09
2022-09-20T12:31:19.155Z,102550.44
2022-09-20T12:34:24.428Z,102550.44
2022-09-20T12:36:52.137Z,102541.31
2022-09-20T12:39:24.198Z,102532.44
2022-09-20T12:41:56.089Z,102534.41
2022-09-20T12:44:34.953Z,102536.44
2022-09-20T12:47:10.477Z,102538.34
2022-09-20T12:50:04.767Z,102531.44
2022-09-20T12:52:58.389Z,102545.84
2022-09-20T12:55:38.467Z,102541.44
2022-09-20T12:58:17.125Z,102539.72
2022-09-20T13:00:57.325Z,102539.91
2022-09-20T13:03:24.000Z,102538.56
2022-09-20T13:06:12.450Z,102514.16
2022-09-20T13:08:42.747Z,102542.03
2022-09-20T13:11:18.406Z,102530.50
2022-09-20T13:14:11.832Z,102530.31
2022-09-20T13:17:13.547Z,102528.88
2022-09-20T13:19:46.604Z,102512.38
2022-09-20T13:22:25.610Z,102517.47
2022-09-20T13:25:02.659Z,102516.09
2022-09-20T13:27:34.548Z,102501.78
2022-09-20T13:30:19.890Z,102531.03
2022-09-20T13:32:47.605Z,102523.72
2022-09-20T13:35:23.490Z,102516.69
2022-09-20T13:37:59.088Z,102520.47
2022-09-20T13:40:34.118Z,102523.41
2022-09-20T13:43:23.155Z,102517.53
2022-09-20T13:45:56.378Z,102503.13
2022-09-20T13:48:28.118Z,102519.19
2022-09-20T13:50:55.997Z,102512.94
2022-09-20T13:53:40.483Z,102521.25
2022-09-20T13:56:16.806Z,102512.81
2022-09-20T13:58:43.308Z,102509.19
2022-09-20T14:01:27.855Z,102502.00
2022-09-20T14:03:57.337Z,102510.03
2022-09-20T14:06:29.637Z,102510.16
2022-09-20T14:08:58.754Z,102505.97
2022-09-20T14:11:33.714Z,102503.81
2022-09-20T14:14:03.128Z,102493.91
2022-09-20T14:16:32.964Z,102505.38
2022-09-20T14:19:00.655Z,102499.38
2022-09-20T14:21:28.850Z,102482.13
2022-09-20T14:24:04.100Z,102475.41
2022-09-20T14:26:33.764Z,102493.75
2022-09-20T14:29:28.123Z,102499.34
2022-09-20T14:31:55.740Z,102490.75
2022-09-20T14:34:22.529Z,102481.81
2022-09-20T14:36:50.305Z,102467.09
2022-09-20T14:39:21.560Z,102478.47
2022-09-20T14:41:48.228Z,102490.41
2022-09-20T14:44:33.904Z,102490.28
2022-09-20T14:47:13.130Z,102482.97
2022-09-20T14:49:43.452Z,102472.63
2022-09-20T14:52:45.347Z,102485.06
2022-09-20T14:55:14.739Z,102485.34
2022-09-20T14:57:42.480Z,102475.88
2022-09-20T15:00:13.128Z,102465.75
2022-09-20T15:02:43.426Z,102452.41
2022-09-20T15:05:23.927Z,102482.84
2022-09-20T15:07:51.559Z,102469.00
2022-09-20T15:10:18.128Z,102468.06
2022-09-20T15:12:44.630Z,102461.94
2022-09-20T15:15:17.349Z,102450.69
2022-09-20T15:17:45.283Z,102467.38
2022-09-20T15:20:23.248Z,102444.38
2022-09-20T15:22:50.649Z,102465.38
2022-09-20T15:25:21.042Z,102464.16
2022-09-20T15:27:50.858Z,102459.34
2022-09-20T15:30:19.762Z,102454.34
2022-09-20T15:32:46.878Z,102465.06
2022-09-20T15:35:14.310Z,102432.22
2022-09-20T15:37:40.910Z,102456.63
2022-09-20T15:40:08.593Z,102458.56
2022-09-20T15:42:38.443Z,102434.38
2022-09-20T15:45:10.501Z,102426.72
2022-09-20T15:47:38.549Z,102445.78
2022-09-20T15:50:08.511Z,102432.81
2022-09-20T15:52:36.812Z,102450.81
2022-09-20T15:55:04.038Z,102451.53
2022-09-20T15:57:31.961Z,102444.53
2022-09-20T16:00:01.269Z,102449.88
2022-09-20T16:02:28.524Z,102410.41
2022-09-20T16:04:55.910Z,102431.78
2022-09-20T16:07:26.330Z,102449.94
2022-09-20T16:09:54.456Z,102415.19
2022-09-20T16:12:22.154Z,102442.09
2022-09-20T16:14:49.159Z,102446.47
2022-09-20T16:17:16.584Z,102433.44
2022-09-20T16:19:48.631Z,102453.19
2022-09-20T16:22:15.857Z,102409.97
2022-09-20T16:24:42.403Z,102446.25
2022-09-20T16:27:09.716Z,102458.28
2022-09-20T16:29:36.203Z,102453.06
2022-09-20T16:32:03.742Z,102439.88
2022-09-20T16:34:35.726Z,102456.56
2022-09-20T16:37:11.733Z,102435.88
2022-09-20T16:39:38.494Z,102454.91
2022-09-20T16:42:06.475Z,102466.50
2022-09-20T16:44:38.393Z,102461.41
2022-09-20T16:47:10.543Z,102447.81
2022-09-20T16:49:37.438Z,102438.56
2022-09-20T16:52:04.754Z,102472.56
2022-09-20T16:54:32.174Z,102470.13
2022-09-20T16:56:59.029Z,102461.59
2022-09-20T16:59:25.593Z,102461.63
2022-09-20T17:01:52.489Z,102468.59
2022-09-20T17:04:20.944Z,102457.41
2022-09-20T17:06:48.944Z,102463.63
2022-09-20T17:09:16.433Z,102464.63
2022-09-20T17:11:49.500Z,102439.81
2022-09-20T17:14:18.545Z,102457.22
2022-09-20T17:16:47.799Z,102466.06
2022-09-20T17:19:16.632Z,102456.78
2022-09-20T17:21:46.147Z,102465.72
2022-09-20T17:24:14.123Z,102434.00
2022-09-20T17:26:44.405Z,102467.94
2022-09-20T17:29:13.993Z,102463.75
2022-09-20T17:31:43.570Z,102453.66
2022-09-20T17:34:12.013Z,102451.31
2022-09-20T17:36:41.589Z,102476.81
2022-09-20T17:39:12.961Z,102467.41
2022-09-20T17:41:41.249Z,102472.00
2022-09-20T17:44:11.963Z,102460.06
2022-09-20T17:46:43.670Z,102470.81
2022-09-20T17:49:14.962Z,102480.72
2022-09-20T17:51:49.722Z,102485.38
2022-09-20T17:54:16.508Z,102478.69
2022-09-20T17:56:46.227Z,102448.66
2022-09-20T17:59:15.625Z,102454.94
2022-09-20T18:01:43.309Z,102475.81
2022-09-20T18:04:10.541Z,102494.41
2022-09-20T18:06:42.115Z,102491.94
2022-09-20T18:09:10.560Z,102492.19
2022-09-20T18:11:39.781Z,102493.28
2022-09-20T18:14:08.722Z,102492.59
2022-09-20T18:16:35.357Z,102467.63
2022-09-20T18:19:01.976Z,102477.38
2022-09-20T18:21:30.961Z,102486.25
2022-09-20T18:23:57.719Z,102486.47
2022-09-20T18:26:27.186Z,102491.94
2022-09-20T18:29:19.964Z,102490.47
2022-09-20T18:31:48.601Z,102482.88
2022-09-20T18:34:31.878Z,102492.63
2022-09-20T18:37:01.137Z,102497.22
2022-09-20T18:39:32.787Z,102486.09
2022-09-20T18:42:00.019Z,102485.38
2022-09-20T18:44:28.155Z,102478.66
2022-09-20T18:46:55.116Z,102491.81
2022-09-20T18:49:22.104Z,102504.19
2022-09-20T18:51:49.574Z,102506.97
2022-09-20T18:54:16.664Z,102482.84
2022-09-20T18:56:45.502Z,102513.41
2022-09-20T18:59:24.234Z,102508.34
2022-09-20T19:01:50.942Z,102512.81
2022-09-20T19:04:40.034Z,102509.56
2022-09-20T19:07:28.304Z,102519.28
2022-09-20T19:10:13.236Z,102515.88
2022-09-20T19:12:42.683Z,102515.97
2022-09-20T19:15:36.596Z,102515.22
2022-09-20T19:18:13.620Z,102518.84
2022-09-20T19:21:05.774Z,102525.13
2022-09-20T19:23:47.688Z,102522.59
2022-09-20T19:26:24.663Z,102527.13
2022-09-20T19:28:54.970Z,102530.72
2022-09-20T19:31:30.499Z,102526.47
2022-09-20T19:33:59.600Z,102539.63
2022-09-20T19:36:31.521Z,102536.31
2022-09-20T19:39:32.798Z,102538.13
2022-09-20T19:42:08.619Z,102543.44
2022-09-20T19:44:55.380Z,102553.09
2022-09-20T19:47:47.194Z,102551.44
2022-09-20T19:50:26.138Z,102552.34
2022-09-20T19:52:52.789Z,102515.00
2022-09-20T19:55:20.263Z,102546.34
2022-09-20T19:57:47.318Z,102546.41
2022-09-20T20:00:20.465Z,102547.31
2022-09-20T20:02:48.222Z,102556.94
2022-09-20T20:05:17.743Z,102518.72
2022-09-20T20:08:19.171Z,102558.78
2022-09-20T20:11:03.165Z,102557.97
2022-09-20T20:13:52.755Z,102531.00
2022-09-20T20:16:27.045Z,102557.13
2022-09-20T20:19:15.309Z,102565.00
2022-09-20T20:22:12.382Z,102565.03
2022-09-20T20:24:44.941Z,102568.53
2022-09-20T20:27:11.389Z,102563.31
2022-09-20T20:29:37.816Z,102572.94
2022-09-20T20:32:04.795Z,102560.75
2022-09-20T20:34:31.373Z,102566.88
2022-09-20T20:37:01.075Z,102571.22
2022-09-20T20:39:29.697Z,102546.88
2022-09-20T20:42:01.935Z,102547.72
2022-09-20T20:44:36.404Z,102557.31
2022-09-20T20:47:04.825Z,102565.09
2022-09-20T20:49:31.494Z,102568.66
2022-09-20T20:51:59.609Z,102569.53
2022-09-20T20:54:26.208Z,102580.84
2022-09-20T20:56:52.670Z,102582.59
2022-09-20T20:59:19.133Z,102578.22
2022-09-20T21:01:45.911Z,102580.00
2022-09-20T21:04:13.460Z,102576.50
2022-09-20T21:06:41.477Z,102575.63
2022-09-20T21:09:09.658Z,102578.25
2022-09-20T21:11:39.163Z,102575.63
2022-09-20T21:14:07.340Z,102578.25
2022-09-20T21:16:36.152Z,102578.25
2022-09-20T21:19:04.266Z,102575.63
2022-09-20T21:21:33.581Z,102580.88
2022-09-20T21:24:05.753Z,102582.59
2022-09-20T21:26:33.797Z,102585.22
2022-09-20T21:29:02.790Z,102563.44
2022-09-20T21:31:35.017Z,102577.41
2022-09-20T21:34:01.938Z,102580.88
2022-09-20T21:36:29.787Z,102563.44
2022-09-20T21:38:56.896Z,102585.22
2022-09-20T21:41:29.308Z,102582.56
2022-09-20T21:43:57.489Z,102585.19
2022-09-20T21:46:28.342Z,102579.97
2022-09-20T21:48:56.822Z,102578.25
2022-09-20T21:51:25.154Z,102583.47
2022-09-20T21:53:54.355Z,102580.00
2022-09-20T21:56:20.849Z,102594.78
2022-09-20T21:58:47.315Z,102571.28
2022-09-20T22:01:17.129Z,102594.81
2022-09-20T22:03:46.319Z,102589.53
2022-09-20T22:06:21.251Z,102589.53
2022-09-20T22:08:50.326Z,102543.41
2022-09-20T22:11:18.286Z,102586.06
2022-09-20T22:13:49.856Z,102592.16
2022-09-20T22:16:19.173Z,102589.53
2022-09-20T22:18:46.820Z,102572.94
2022-09-20T22:21:16.452Z,102573.00
2022-09-20T22:23:43.634Z,102591.22
2022-09-20T22:26:15.629Z,102591.28
2022-09-20T22:28:42.654Z,102567.78
2022-09-20T22:31:16.326Z,102595.63
2022-09-20T22:33:47.721Z,102588.63
2022-09-20T22:36:17.705Z,102592.13
2022-09-20T22:38:44.931Z,102598.25
2022-09-20T22:41:13.911Z,102577.31
2022-09-20T22:43:40.490Z,102598.22
2022-09-20T22:46:28.871Z,102570.34
2022-09-20T22:48:56.321Z,102575.59
2022-09-20T22:51:25.808Z,102592.09
2022-09-20T22:53:52.779Z,102592.09
2022-09-20T22:56:28.830Z,102587.75
2022-09-20T22:59:03.293Z,102596.44
2022-09-20T23:01:31.999Z,102592.09
2022-09-20T23:03:59.820Z,102596.44
2022-09-20T23:06:27.833Z,102582.47
2022-09-20T23:08:56.861Z,102595.53
2022-09-20T23:11:24.096Z,102579.88
2022-09-20T23:13:59.055Z,102585.97
2022-09-20T23:16:30.496Z,102590.31
2022-09-20T23:18:58.635Z,102577.25
2022-09-20T23:21:25.952Z,102583.34
2022-09-20T23:23:57.410Z,102582.47
2022-09-20T23:26:25.423Z,102580.75
2022-09-20T23:28:56.848Z,102589.47
2022-09-20T23:31:24.251Z,102589.47
2022-09-20T23:33:56.080Z,102584.22
2022-09-20T23:36:24.175Z,102583.38
2022-09-20T23:38:51.453Z,102584.25
2022-09-20T23:41:21.484Z,102582.53
2022-09-20T23:43:48.321Z,102587.72
2022-09-20T23:46:17.184Z,102579.88
2022-09-20T23:48:44.699Z,102582.53
2022-09-20T23:51:13.627Z,102579.03
2022-09-20T23:53:40.720Z,102587.72
2022-09-20T23:56:08.080Z,102582.47
2022-09-20T23:58:37.153Z,102577.25
